Flight Track Log - Related Links

Times and Time Zones

All times are in EST time to prevent confusion due to time zone crossing. See the N414NW flight status page for this flight to view local times or setup timezone preferences in your user account.


Time Position Orientation Groundspeed Altitude Reporting Facility
EST Latitude Longitude Course Direction KTS MPH feet Rate Location/Type
Fri 10:49:10 AM 30.0528 -90.0322 North 86 99 600  Level Houston Center
Fri 10:50:23 AM 30.0881 -90.0283 North 107 123 2,300 1,065 Climbing Houston Center
Fri 10:51:14 AM 30.1094 -90.0164 26° Northeast 115 132 2,800 846 Climbing Houston Center
Fri 10:51:41 AM 30.1231 -90.0075 29° Northeast 113 130 3,400 871 Climbing Houston Center
Fri 10:52:16 AM 30.1361 -90.0008 24° Northeast 111 128 3,700 787 Climbing Houston Center
Fri 10:52:42 AM 30.1517 -89.9919 26° Northeast 111 128 4,200 871 Climbing Houston Center
Fri 10:53:18 AM 30.1628 -89.9833 34° Northeast 111 128 4,600 885 Climbing Houston Center
Fri 10:53:43 AM 30.1783 -89.9739 28° Northeast 109 125 5,100 1,065 Climbing Houston Center
Fri 10:54:20 AM 30.1936 -89.9633 31° Northeast 108 124 5,700 977 Climbing Houston Center
Fri 10:54:26 AM 30.1947 -89.9636 348° North 106 122 5,800 774 Climbing Houston Center
Fri 10:55:22 AM 30.2200 -89.9469 30° Northeast 107 123 6,500 806 Climbing Houston Center
Fri 10:55:33 AM 30.2253 -89.9431 32° Northeast 105 121 6,700 571 Climbing Houston Center
Fri 10:56:25 AM 30.2489 -89.9294 26° Northeast 114 131 7,100 667 Climbing Houston Center
Fri 10:56:27 AM 30.2519 -89.9275 29° Northeast 121 139 7,300 677 Climbing Houston Center
Fri 10:57:27 AM 30.2814 -89.9083 29° Northeast 127 146 7,800 590 Climbing Houston Center
Fri 10:57:28 AM 30.2847 -89.9067 23° Northeast 134 154 7,900 677 Climbing Houston Center
Fri 10:58:29 AM 30.3194 -89.8836 30° Northeast 141 162 8,500 488 Climbing Houston Center
Fri 10:59:31 AM 30.3528 -89.8639 27° Northeast 146 168 8,900 484 Climbing Houston Center
Fri 11:00:33 AM 30.3908 -89.8403 28° Northeast 151 174 9,500 581 Climbing Houston Center
Fri 11:01:35 AM 30.4297 -89.8164 28° Northeast 155 178 10,100 629 Climbing Houston Center
Fri 11:02:37 AM 30.4761 -89.7867 29° Northeast 157 181 10,800 435 Climbing Houston Center
Fri 11:03:39 AM 30.5161 -89.7608 29° Northeast 161 185 11,000 97 Climbing Houston Center
Fri 11:04:41 AM 30.5614 -89.7328 28° Northeast 176 203 11,000  Level Houston Center
Fri 11:05:44 AM 30.6092 -89.7111 21° North 182 209 11,000  Level Houston Center
Fri 11:06:46 AM 30.6553 -89.6900 21° North 180 207 11,000  Level Houston Center
Fri 11:07:48 AM 30.7000 -89.6700 21° North 175 201 11,000  Level Houston Center
Fri 11:08:50 AM 30.7550 -89.6450 21° North 176 203 11,000  Level Houston Center
Fri 11:09:52 AM 30.8003 -89.6242 22° Northeast 176 203 11,000  Level Houston Center
Fri 11:10:54 AM 30.8461 -89.6025 22° Northeast 176 203 11,000  Level Houston Center
Fri 11:11:56 AM 30.8908 -89.5828 21° North 174 200 11,000  Level Houston Center
Fri 11:12:58 AM 30.9361 -89.5614 22° Northeast 175 201 11,000  Level Houston Center
Fri 11:14:01 AM 30.9814 -89.5406 22° Northeast 175 201 11,000  Level Houston Center
Fri 11:15:03 AM 31.0364 -89.5169 20° North 175 201 11,000  Level Houston Center
Fri 11:16:05 AM 31.0817 -89.4950 23° Northeast 175 201 11,000  Level Houston Center
Fri 11:17:07 AM 31.1269 -89.4747 21° North 175 201 11,000  Level Houston Center
Fri 11:18:09 AM 31.1714 -89.4531 23° Northeast 173 199 11,000  Level Houston Center
Fri 11:19:11 AM 31.2161 -89.4333 21° North 172 198 11,000  Level Houston Center
Fri 11:20:13 AM 31.2642 -89.4108 22° Northeast 172 198 11,000  Level Houston Center
Fri 11:21:16 AM 31.3092 -89.3892 22° Northeast 174 200 11,000  Level Houston Center
Fri 11:22:18 AM 31.3539 -89.3683 22° Northeast 173 199 11,000  Level Houston Center
Fri 11:23:20 AM 31.4081 -89.3439 21° North 173 199 11,000  Level Houston Center
Fri 11:24:22 AM 31.4506 -89.3169 28° Northeast 174 200 11,000  Level Houston Center
Fri 11:25:24 AM 31.4933 -89.2869 31° Northeast 177 204 11,000  Level Houston Center
Fri 11:26:26 AM 31.5347 -89.2561 32° Northeast 177 204 11,000  Level Houston Center
Fri 11:27:28 AM 31.5781 -89.2264 30° Northeast 179 206 11,000  Level Houston Center
Fri 11:28:31 AM 31.6292 -89.1897 31° Northeast 179 206 11,000  Level Houston Center
Fri 11:29:33 AM 31.6719 -89.1600 31° Northeast 179 206 11,000  Level Houston Center
Fri 11:30:35 AM 31.7136 -89.1297 32° Northeast 177 204 11,000  Level Houston Center
Fri 11:31:37 AM 31.7561 -89.1003 31° Northeast 177 204 11,000  Level Houston Center
Fri 11:32:39 AM 31.7978 -89.0694 32° Northeast 177 204 11,000  Level Houston Center
Fri 11:33:41 AM 31.8406 -89.0389 31° Northeast 177 204 11,000  Level Houston Center
Fri 11:34:43 AM 31.8919 -89.0028 31° Northeast 179 206 11,000  Level Houston Center
Fri 11:35:46 AM 31.9347 -88.9711 32° Northeast 179 206 11,000  Level Houston Center
Fri 11:36:52 AM 31.9819 -88.9372 31° Northeast 179 206 11,000  Level Memphis Center
Fri 11:37:54 AM 32.0244 -88.9078 30° Northeast 178 205 11,000  Level Memphis Center
Fri 11:38:56 AM 32.0658 -88.8778 32° Northeast 177 204 11,000  Level Memphis Center
Fri 11:39:58 AM 32.1064 -88.8472 33° Northeast 175 201 11,000  Level Memphis Center
Fri 11:40:59 AM 32.1486 -88.8178 31° Northeast 176 203 11,000  Level Memphis Center
Fri 11:42:01 AM 32.1978 -88.7822 31° Northeast 175 201 11,000  Level Memphis Center
Fri 11:43:03 AM 32.2386 -88.7528 31° Northeast 173 199 11,000  Level Memphis Center
Fri 11:44:05 AM 32.2806 -88.7225 31° Northeast 175 201 11,000  Level Memphis Center
Fri 11:45:07 AM 32.3214 -88.6925 32° Northeast 175 201 11,000  Level Memphis Center
Fri 11:46:09 AM 32.3631 -88.6617 32° Northeast 176 203 11,000  Level Memphis Center
Fri 11:47:11 AM 32.4042 -88.6325 31° Northeast 174 200 11,000  Level Memphis Center
Fri 11:48:13 AM 32.4542 -88.5967 31° Northeast 175 201 11,000  Level Memphis Center
Fri 11:49:15 AM 32.4956 -88.5664 32° Northeast 175 201 11,000  Level Memphis Center
Fri 11:50:17 AM 32.5361 -88.5367 32° Northeast 174 200 11,000  Level Memphis Center
Fri 11:51:19 AM 32.5772 -88.5058 32° Northeast 175 201 11,000  Level Memphis Center
Fri 11:52:21 AM 32.6186 -88.4761 31° Northeast 174 200 11,000  Level Memphis Center
Fri 11:53:22 AM 32.6675 -88.4414 31° Northeast 172 198 11,000  Level Memphis Center
Fri 11:54:24 AM 32.7083 -88.4103 33° Northeast 174 200 11,000 51 Level Memphis Center
Fri 11:55:19 AM 32.7472 -88.3811 32° Northeast 173 199 11,100  Climbing Memphis Center
Fri 11:55:26 AM 32.7492 -88.3811 360° North 173 199 11,000  Descending Memphis Center
Fri 11:56:20 AM 32.7889 -88.3517 32° Northeast 173 199 11,100  Climbing Memphis Center
Fri 11:56:28 AM 32.7906 -88.3511 16° North 174 200 11,000  Descending Memphis Center
Fri 11:57:15 AM 32.8244 -88.3267 31° Northeast 171 197 11,100  Climbing Memphis Center
Fri 11:57:30 AM 32.8303 -88.3217 36° Northeast 171 197 11,000  Descending Memphis Center
Fri 11:58:15 AM 32.8661 -88.2969 30° Northeast 172 198 11,100  Climbing Memphis Center
Fri 11:58:32 AM 32.8708 -88.2914 45° Northeast 172 198 11,000  Descending Memphis Center
Fri 11:59:16 AM 32.9058 -88.2647 33° Northeast 173 199 11,100  Climbing Memphis Center
Fri 11:59:34 AM 32.9200 -88.2550 30° Northeast 174 200 11,000  Descending Memphis Center
Fri 12:00:16 PM 32.9494 -88.2325 33° Northeast 174 200 11,100  Climbing Memphis Center
Fri 12:00:36 PM 32.9614 -88.2250 28° Northeast 174 200 11,000 -98 Descending Memphis Center
Fri 12:01:17 PM 32.9911 -88.2028 32° Northeast 174 200 11,000  Level Memphis Center
Fri 12:01:38 PM 33.0017 -88.1942 34° Northeast 173 199 11,000  Level Memphis Center
Fri 12:02:17 PM 33.0308 -88.1728 32° Northeast 174 200 11,000  Level Memphis Center
Fri 12:02:40 PM 33.0478 -88.1611 30° Northeast 174 200 11,000  Level Memphis Center
Fri 12:03:18 PM 33.0725 -88.1431 31° Northeast 174 200 11,000  Level Memphis Center
Fri 12:03:42 PM 33.0886 -88.1308 32° Northeast 173 199 11,000 -98 Level Memphis Center
Fri 12:04:19 PM 33.1164 -88.1106 31° Northeast 174 200 10,900 -98 Descending Memphis Center
Fri 12:04:43 PM 33.1306 -88.1006 31° Northeast 175 201 10,900  Level Memphis Center
Fri 12:05:19 PM 33.1581 -88.0808 31° Northeast 174 200 10,900  Level Memphis Center
Fri 12:05:45 PM 33.1706 -88.0697 37° Northeast 173 199 10,900  Level Memphis Center
Fri 12:06:20 PM 33.1975 -88.0508 30° Northeast 175 201 10,900  Level Memphis Center
Fri 12:06:47 PM 33.2125 -88.0394 32° Northeast 175 201 10,900  Level Memphis Center
Fri 12:07:21 PM 33.2392 -88.0208 30° Northeast 173 199 10,900  Level Memphis Center
Fri 12:07:49 PM 33.2539 -88.0086 35° Northeast 175 201 10,900  Level Memphis Center
Fri 12:08:21 PM 33.2828 -87.9883 30° Northeast 173 199 10,900  Level Memphis Center
Fri 12:09:22 PM 33.3225 -87.9583 32° Northeast 174 200 10,900  Level Memphis Center
Fri 12:09:53 PM 33.3428 -87.9414 35° Northeast 172 198 10,900  Level Memphis Center
Fri 12:10:22 PM 33.3642 -87.9281 28° Northeast 172 198 10,900  Level Memphis Center
Fri 12:10:55 PM 33.3842 -87.9114 35° Northeast 174 200 10,900  Level Memphis Center
Fri 12:11:57 PM 33.4247 -87.8806 32° Northeast 174 200 10,900  Level Memphis Center
Fri 12:12:59 PM 33.4661 -87.8503 31° Northeast 173 199 10,900 48 Level Memphis Center
Fri 12:14:01 PM 33.5078 -87.8192 32° Northeast 176 203 11,000 48 Climbing Memphis Center
Fri 12:15:03 PM 33.5564 -87.7819 33° Northeast 174 200 11,000  Level Memphis Center
Fri 12:16:05 PM 33.5975 -87.7517 32° Northeast 174 200 11,000  Level Memphis Center
Fri 12:17:07 PM 33.6392 -87.7203 32° Northeast 176 203 11,000  Level Memphis Center
Fri 12:18:09 PM 33.6806 -87.6894 32° Northeast 176 203 11,000  Level Memphis Center
Fri 12:19:11 PM 33.7211 -87.6583 33° Northeast 174 200 11,000  Level Memphis Center
Fri 12:20:13 PM 33.7622 -87.6272 32° Northeast 174 200 11,000  Level Memphis Center
Fri 12:21:15 PM 33.8117 -87.5900 32° Northeast 175 201 11,000  Level Memphis Center
Fri 12:22:17 PM 33.8519 -87.5592 32° Northeast 173 199 11,000  Level Memphis Center
Fri 12:22:29 PM 33.8519 -87.5592 32° Northeast 173 199 11,000  Level Memphis Center
Fri 12:24:33 PM 33.9433 -87.4900 32° Northeast 177 204 11,000  Level Memphis Center
Fri 12:25:35 PM 33.9828 -87.4594 33° Northeast 173 199 11,000  Level Memphis Center
Fri 12:26:37 PM 34.0236 -87.4294 31° Northeast 173 199 11,000  Level Memphis Center
Fri 12:27:39 PM 34.0717 -87.3919 33° Northeast 172 198 11,000  Level Memphis Center
Fri 12:28:41 PM 34.1122 -87.3611 32° Northeast 173 199 11,000 -339 Level Memphis Center
Fri 12:29:43 PM 34.1553 -87.3292 32° Northeast 176 203 10,300 -774 Descending Memphis Center
Fri 12:30:45 PM 34.2028 -87.2936 32° Northeast 189 217 9,400 -823 Descending Memphis Center
Fri 12:31:47 PM 34.2483 -87.2583 33° Northeast 194 223 8,600 -823 Descending Memphis Center
Fri 12:32:49 PM 34.3011 -87.2175 33° Northeast 192 221 7,700 -823 Descending Memphis Center
Fri 12:33:51 PM 34.3433 -87.1850 32° Northeast 186 214 6,900 -774 Descending Memphis Center
Fri 12:34:53 PM 34.3769 -87.1464 43° Northeast 181 208 6,100 -720 Descending Memphis Center
Fri 12:35:56 PM 34.3883 -87.0864 77° East 184 212 5,400 -624 Descending Memphis Center
Fri 12:36:58 PM 34.4000 -87.0322 75° East 176 203 4,800 -581 Descending Memphis Center
Fri 12:38:00 PM 34.4122 -86.9689 77° East 167 192 4,200 -581 Descending Memphis Center
Fri 12:39:02 PM 34.4269 -86.9294 66° East 160 184 3,600 -532 Descending Memphis Center
Fri 12:40:04 PM 34.4628 -86.9500 335° Northwest 154 177 3,100 -290 Descending Memphis Center
Fri 12:41:06 PM 34.5058 -86.9536 356° North 147 169 3,000 -97 Descending Memphis Center

Login

Don't have an account? Register now (free) for customized features, flight alerts, and more!